Time;durP1;ratioP1;P1;durP2;ratioP2;P2;SDS_P1;SDS_P2;PMS_P1;PMS_P2;Temp;Humidity;BMP_temperature;BMP_pressure;BME280_temperature;BME280_humidity;BME280_pressure;Samples;Min_cycle;Max_cycle;Signal;HPM_P1;HPM_P2
2021/09/19 00:01:29;;;;;;;31.33;20.50;;;12.20;98.00;;;;;;4988921;28;20030;-69
2021/09/19 00:03:55;;;;;;;31.70;20.52;;;12.20;98.00;;;;;;4992687;28;20022;-69
2021/09/19 00:06:21;;;;;;;28.52;19.85;;;12.20;98.00;;;;;;4990517;28;20053;-69
2021/09/19 00:08:47;;;;;;;26.85;19.02;;;12.10;98.00;;;;;;4990988;28;20023;-69
2021/09/19 00:11:13;;;;;;;33.22;18.33;;;12.10;98.00;;;;;;5002126;28;20036;-69
2021/09/19 00:13:39;;;;;;;28.05;19.08;;;12.10;98.00;;;;;;4987605;28;20034;-69
2021/09/19 00:16:05;;;;;;;28.80;18.65;;;12.00;98.00;;;;;;4976695;28;20058;-69
2021/09/19 00:18:31;;;;;;;32.47;20.17;;;12.10;98.00;;;;;;4976663;28;20038;-69
2021/09/19 00:20:57;;;;;;;28.25;19.52;;;12.10;98.00;;;;;;4994072;28;20044;-69
2021/09/19 00:23:26;;;;;;;32.38;20.42;;;12.20;98.00;;;;;;4995172;28;20097;-68
2021/09/19 00:25:52;;;;;;;26.17;18.48;;;12.10;98.00;;;;;;4976678;28;20027;-69
2021/09/19 00:28:17;;;;;;;31.95;19.00;;;12.10;98.00;;;;;;4967219;28;20331;-69
2021/09/19 00:30:43;;;;;;;27.50;18.92;;;12.10;98.00;;;;;;4992113;28;20042;-68
2021/09/19 00:33:09;;;;;;;26.88;17.80;;;12.10;98.00;;;;;;4991490;28;20030;-69
2021/09/19 00:35:35;;;;;;;27.23;17.75;;;12.00;98.00;;;;;;4979916;28;20038;-69
2021/09/19 00:38:01;;;;;;;25.98;17.55;;;12.00;98.00;;;;;;4980231;28;20396;-69
2021/09/19 00:40:27;;;;;;;24.48;16.73;;;12.00;98.00;;;;;;4992690;28;20442;-69
2021/09/19 00:42:56;;;;;;;26.45;16.95;;;12.00;98.00;;;;;;4996070;28;20069;-69
2021/09/19 00:45:23;;;;;;;24.65;17.58;;;12.00;98.00;;;;;;4997390;28;20084;-69
2021/09/19 00:47:49;;;;;;;25.20;15.90;;;12.00;98.00;;;;;;4997527;28;20030;-69
2021/09/19 00:50:18;;;;;;;26.13;17.80;;;12.00;98.00;;;;;;4997736;28;20018;-68
2021/09/19 00:52:47;;;;;;;24.45;17.33;;;11.90;98.00;;;;;;4992107;28;20109;-68
2021/09/19 00:55:15;;;;;;;30.40;17.27;;;11.90;98.00;;;;;;4987247;28;20027;-68
2021/09/19 00:57:46;;;;;;;27.02;16.55;;;11.90;98.00;;;;;;4980594;28;20094;-69
2021/09/19 01:00:16;;;;;;;23.73;15.93;;;12.00;98.00;;;;;;4982400;28;20118;-70
2021/09/19 01:02:43;;;;;;;23.75;17.08;;;11.90;98.00;;;;;;4966904;28;20029;-69
2021/09/19 01:05:13;;;;;;;26.02;16.83;;;11.90;98.00;;;;;;4982727;28;20046;-69
2021/09/19 01:07:41;;;;;;;25.70;17.40;;;12.00;98.00;;;;;;4984618;28;20110;-69
2021/09/19 01:10:07;;;;;;;25.08;17.67;;;11.90;98.00;;;;;;4982176;28;20026;-70
2021/09/19 01:12:33;;;;;;;26.25;17.15;;;11.80;98.00;;;;;;4985708;28;20044;-69
2021/09/19 01:15:00;;;;;;;25.40;16.58;;;11.80;98.00;;;;;;4983145;28;20106;-69
2021/09/19 01:17:26;;;;;;;27.25;17.67;;;11.90;98.00;;;;;;4984628;28;20034;-69
2021/09/19 01:19:55;;;;;;;25.10;17.40;;;11.80;98.00;;;;;;4970307;28;20061;-69
2021/09/19 01:22:36;;;;;;;26.33;18.50;;;11.90;98.00;;;;;;4985968;28;20035;-69
2021/09/19 01:25:07;;;;;;;26.13;17.15;;;11.90;98.00;;;;;;4981057;28;20424;-69
2021/09/19 01:27:32;;;;;;;30.58;18.20;;;11.90;98.00;;;;;;4983686;28;20022;-69
2021/09/19 01:29:58;;;;;;;26.55;18.08;;;11.80;98.00;;;;;;4983589;28;20042;-69
2021/09/19 01:32:24;;;;;;;27.92;18.33;;;11.80;98.00;;;;;;4984208;28;20027;-69
2021/09/19 01:34:50;;;;;;;30.08;20.02;;;11.80;98.00;;;;;;4984968;28;20062;-69
2021/09/19 01:37:18;;;;;;;41.15;20.75;;;11.80;98.00;;;;;;4983363;28;20037;-69
2021/09/19 01:39:46;;;;;;;31.77;19.83;;;11.90;98.00;;;;;;4984406;28;20030;-69
2021/09/19 01:42:12;;;;;;;34.47;20.77;;;11.90;98.00;;;;;;4981047;28;20097;-70
2021/09/19 01:44:39;;;;;;;33.00;20.83;;;11.90;98.00;;;;;;4981927;28;20092;-69
2021/09/19 01:47:05;;;;;;;28.52;20.00;;;11.90;98.00;;;;;;4984240;28;20030;-68
2021/09/19 01:49:31;;;;;;;31.40;20.58;;;11.90;98.00;;;;;;4983774;28;20041;-69
2021/09/19 01:51:58;;;;;;;28.52;19.52;;;11.90;98.00;;;;;;4982046;28;20030;-69
2021/09/19 01:54:24;;;;;;;33.58;21.33;;;11.80;98.00;;;;;;4983022;28;20026;-70
2021/09/19 01:56:49;;;;;;;29.77;19.48;;;11.80;98.00;;;;;;4980451;28;20023;-69
2021/09/19 01:59:15;;;;;;;30.10;19.50;;;11.80;98.00;;;;;;4984483;28;20472;-70
2021/09/19 02:01:41;;;;;;;28.40;18.85;;;11.80;98.00;;;;;;4986345;28;20343;-70
2021/09/19 02:04:06;;;;;;;30.45;20.85;;;11.80;98.00;;;;;;4982606;28;20102;-70
2021/09/19 02:06:32;;;;;;;31.77;20.08;;;11.80;98.00;;;;;;4965873;28;21846;-70
2021/09/19 02:08:58;;;;;;;31.05;20.20;;;11.70;98.00;;;;;;4968737;28;20092;-70
2021/09/19 02:11:23;;;;;;;32.42;21.65;;;11.60;98.00;;;;;;4983112;28;20035;-69
2021/09/19 02:13:50;;;;;;;30.92;21.00;;;11.50;98.00;;;;;;4983226;28;20442;-70
2021/09/19 02:16:20;;;;;;;35.63;22.45;;;11.50;98.00;;;;;;4982768;28;20132;-70
2021/09/19 02:18:48;;;;;;;31.10;20.65;;;11.60;98.00;;;;;;4980968;28;20319;-70
2021/09/19 02:21:14;;;;;;;32.72;20.85;;;11.60;98.00;;;;;;4985930;28;20030;-69
2021/09/19 02:23:40;;;;;;;32.08;21.08;;;11.60;98.00;;;;;;4979165;28;20037;-70
2021/09/19 02:26:06;;;;;;;33.50;20.50;;;11.60;98.00;;;;;;4982637;28;20320;-69
2021/09/19 02:28:32;;;;;;;32.42;22.67;;;11.60;98.00;;;;;;4984780;28;20035;-70
2021/09/19 02:30:58;;;;;;;33.33;21.63;;;11.50;98.00;;;;;;4980226;28;20351;-70
2021/09/19 02:33:24;;;;;;;32.25;21.08;;;11.50;98.00;;;;;;4985000;28;20039;-69
2021/09/19 02:35:50;;;;;;;35.00;21.17;;;11.40;98.00;;;;;;4985921;28;20125;-70
2021/09/19 02:38:15;;;;;;;34.17;21.20;;;11.40;98.00;;;;;;4982020;28;20033;-69
2021/09/19 02:40:41;;;;;;;38.75;23.27;;;11.50;98.00;;;;;;4966597;28;20062;-70
2021/09/19 02:43:07;;;;;;;34.35;22.90;;;11.50;98.00;;;;;;4977209;28;20143;-70
2021/09/19 02:45:33;;;;;;;33.35;20.85;;;11.60;98.00;;;;;;4981320;28;20036;-69
2021/09/19 02:48:02;;;;;;;33.47;21.20;;;11.60;98.00;;;;;;4983324;28;20436;-70
2021/09/19 02:50:27;;;;;;;34.63;21.77;;;11.60;98.00;;;;;;4983741;28;20380;-69
2021/09/19 02:52:53;;;;;;;32.65;22.58;;;11.60;98.00;;;;;;4984572;28;20105;-70
2021/09/19 02:55:21;;;;;;;32.97;21.55;;;11.60;98.00;;;;;;4982827;28;20043;-69
2021/09/19 02:57:47;;;;;;;33.25;21.20;;;11.60;98.00;;;;;;4964978;28;20038;-69
2021/09/19 03:00:17;;;;;;;37.92;23.10;;;11.60;98.00;;;;;;4980228;28;20050;-69
2021/09/19 03:02:43;;;;;;;30.70;20.70;;;11.60;98.00;;;;;;4981555;28;20034;-69
2021/09/19 03:05:10;;;;;;;34.00;22.23;;;11.50;98.00;;;;;;4979838;28;20031;-70
2021/09/19 03:07:36;;;;;;;32.95;20.50;;;11.50;98.00;;;;;;4979297;28;20018;-70
2021/09/19 03:10:03;;;;;;;32.13;21.85;;;11.40;98.00;;;;;;4984436;28;20050;-70
2021/09/19 03:12:28;;;;;;;34.70;22.00;;;11.40;98.00;;;;;;4981183;28;20038;-69
2021/09/19 03:14:57;;;;;;;37.15;22.48;;;11.30;98.00;;;;;;4983074;28;20380;-69
2021/09/19 03:17:23;;;;;;;31.30;20.83;;;11.30;98.00;;;;;;4982551;28;20030;-69
2021/09/19 03:19:52;;;;;;;34.30;20.60;;;11.30;98.00;;;;;;4977285;28;20041;-70
2021/09/19 03:22:17;;;;;;;33.67;21.33;;;11.30;98.00;;;;;;4983594;28;20049;-70
2021/09/19 03:24:43;;;;;;;28.35;20.05;;;11.30;98.00;;;;;;4981289;28;20042;-70
2021/09/19 03:27:09;;;;;;;33.17;21.30;;;11.30;98.00;;;;;;4981777;28;20023;-69
2021/09/19 03:29:34;;;;;;;32.35;21.10;;;11.30;98.00;;;;;;4981473;28;20057;-69
2021/09/19 03:32:01;;;;;;;34.03;21.33;;;11.30;98.00;;;;;;4981578;28;20048;-70
2021/09/19 03:34:27;;;;;;;34.03;21.65;;;11.30;98.00;;;;;;4962505;28;20409;-69
2021/09/19 03:36:52;;;;;;;32.03;20.83;;;11.40;98.00;;;;;;4981069;28;20061;-70
2021/09/19 03:39:18;;;;;;;35.20;20.83;;;11.40;98.00;;;;;;4980669;28;20523;-69
2021/09/19 03:41:44;;;;;;;32.35;20.85;;;11.40;98.00;;;;;;4979706;28;20034;-69
2021/09/19 03:44:10;;;;;;;31.48;19.77;;;11.40;98.00;;;;;;4980386;28;20035;-69
2021/09/19 03:46:37;;;;;;;29.70;20.40;;;11.40;98.00;;;;;;4979922;28;20023;-69
2021/09/19 03:49:03;;;;;;;34.58;19.80;;;11.30;98.00;;;;;;4979510;28;20110;-69
2021/09/19 03:51:29;;;;;;;32.53;20.35;;;11.30;98.00;;;;;;4982521;28;20447;-70
2021/09/19 03:53:55;;;;;;;32.05;19.88;;;11.30;98.00;;;;;;4985121;28;20121;-71
2021/09/19 03:56:20;;;;;;;32.28;20.10;;;11.30;98.00;;;;;;4982858;28;20030;-69
2021/09/19 03:58:46;;;;;;;27.75;18.95;;;11.30;98.00;;;;;;4984126;28;20038;-69
2021/09/19 04:01:13;;;;;;;28.85;18.45;;;11.40;98.00;;;;;;4978001;28;20092;-69
2021/09/19 04:03:38;;;;;;;30.98;19.20;;;11.40;98.00;;;;;;4982835;28;20023;-70
2021/09/19 04:06:04;;;;;;;31.05;19.88;;;11.40;98.00;;;;;;4979618;28;20106;-69
2021/09/19 04:08:30;;;;;;;33.15;18.80;;;11.40;98.00;;;;;;4979930;28;20479;-69
2021/09/19 04:10:55;;;;;;;29.20;19.05;;;11.50;98.00;;;;;;4982302;28;20112;-69
2021/09/19 04:13:21;;;;;;;26.17;18.27;;;11.40;98.00;;;;;;4976761;28;20023;-69
2021/09/19 04:15:47;;;;;;;30.65;19.02;;;11.50;98.00;;;;;;4980739;28;20071;-69
2021/09/19 04:18:14;;;;;;;28.38;18.70;;;11.40;98.00;;;;;;4985810;28;20027;-69
2021/09/19 04:20:40;;;;;;;27.98;18.25;;;11.30;98.00;;;;;;4983508;28;20031;-69
2021/09/19 04:23:05;;;;;;;34.53;20.48;;;11.20;98.00;;;;;;4985208;28;20129;-69
2021/09/19 04:25:31;;;;;;;29.88;19.55;;;11.20;98.00;;;;;;4984488;28;20106;-69
2021/09/19 04:27:57;;;;;;;35.45;22.35;;;11.00;98.00;;;;;;4985890;28;20038;-69
2021/09/19 04:30:23;;;;;;;36.25;22.73;;;10.70;98.00;;;;;;4985342;28;20125;-69
2021/09/19 04:32:48;;;;;;;39.25;25.30;;;10.40;98.00;;;;;;4982918;28;20065;-70
2021/09/19 04:35:14;;;;;;;42.83;26.20;;;10.20;98.00;;;;;;4983578;28;20031;-69
2021/09/19 04:37:39;;;;;;;37.60;23.70;;;10.00;98.00;;;;;;4985985;28;20070;-69
2021/09/19 04:40:07;;;;;;;46.15;27.33;;;9.80;98.00;;;;;;4965070;28;20405;-69
2021/09/19 04:42:32;;;;;;;40.15;24.23;;;9.70;98.00;;;;;;4980837;28;20058;-70
2021/09/19 04:44:58;;;;;;;43.70;26.25;;;9.50;98.00;;;;;;4983273;28;20059;-69
2021/09/19 04:47:24;;;;;;;40.88;25.45;;;9.40;98.00;;;;;;4985536;28;20034;-71
2021/09/19 04:49:49;;;;;;;40.17;25.17;;;9.30;98.00;;;;;;4984723;28;20030;-69
2021/09/19 04:52:16;;;;;;;43.25;26.50;;;9.20;97.70;;;;;;4986552;28;20034;-68
2021/09/19 04:54:42;;;;;;;34.85;22.85;;;9.10;97.70;;;;;;4965480;28;20062;-70
2021/09/19 04:57:08;;;;;;;43.83;26.02;;;9.00;97.40;;;;;;4981586;28;20082;-70
2021/09/19 04:59:35;;;;;;;44.50;26.27;;;9.00;96.70;;;;;;4983397;28;20468;-70
2021/09/19 05:02:01;;;;;;;41.13;24.75;;;9.10;96.40;;;;;;4981574;28;20030;-70
2021/09/19 05:04:27;;;;;;;45.42;27.17;;;9.10;96.00;;;;;;4985263;28;20081;-69
2021/09/19 05:06:52;;;;;;;43.60;26.90;;;9.20;96.20;;;;;;4984532;28;20027;-70
2021/09/19 05:09:18;;;;;;;48.97;28.20;;;9.10;96.30;;;;;;4965455;28;20341;-70
2021/09/19 05:11:44;;;;;;;46.17;28.67;;;9.00;96.10;;;;;;4985148;28;20067;-69
2021/09/19 05:14:09;;;;;;;52.72;27.60;;;9.00;96.10;;;;;;4986073;28;20034;-70
2021/09/19 05:16:35;;;;;;;43.22;26.20;;;8.90;96.50;;;;;;4985848;28;20246;-70
2021/09/19 05:19:01;;;;;;;43.90;24.40;;;9.00;94.40;;;;;;4982591;28;20442;-69
2021/09/19 05:21:27;;;;;;;40.05;24.92;;;9.20;94.80;;;;;;4988019;28;20031;-70
2021/09/19 05:23:53;;;;;;;46.25;26.15;;;9.30;94.80;;;;;;4981616;28;20179;-70
2021/09/19 05:26:18;;;;;;;42.08;26.83;;;9.30;95.10;;;;;;4969331;28;20042;-69
2021/09/19 05:28:44;;;;;;;49.03;28.85;;;9.30;95.90;;;;;;4979796;28;20113;-70
2021/09/19 05:31:12;;;;;;;48.85;27.23;;;9.30;96.00;;;;;;4987775;28;20165;-70
2021/09/19 05:33:38;;;;;;;39.03;25.42;;;9.20;96.20;;;;;;4985771;28;20068;-69
2021/09/19 05:36:04;;;;;;;38.67;25.00;;;9.20;96.00;;;;;;4987977;28;20034;-69
2021/09/19 05:38:30;;;;;;;45.05;26.50;;;9.10;96.20;;;;;;4982530;28;20738;-69
2021/09/19 05:40:55;;;;;;;49.45;29.00;;;9.10;95.90;;;;;;4988314;28;20035;-69
2021/09/19 05:43:21;;;;;;;45.55;26.30;;;9.10;96.20;;;;;;4987175;28;20076;-69
2021/09/19 05:45:47;;;;;;;40.30;26.33;;;9.00;96.10;;;;;;4998785;28;20027;-71
2021/09/19 05:48:12;;;;;;;45.58;26.52;;;9.00;96.00;;;;;;4997567;28;20026;-69
2021/09/19 05:50:38;;;;;;;44.30;25.85;;;9.00;95.70;;;;;;4984641;28;20026;-70
2021/09/19 05:53:04;;;;;;;39.47;24.92;;;9.00;95.60;;;;;;4980469;28;20035;-69
2021/09/19 05:55:29;;;;;;;41.97;26.63;;;9.10;95.40;;;;;;4986472;28;20083;-69
2021/09/19 05:57:55;;;;;;;38.42;24.98;;;9.20;95.20;;;;;;4982631;28;20081;-70
2021/09/19 06:00:20;;;;;;;43.78;26.98;;;9.30;94.60;;;;;;4982782;28;20046;-70
2021/09/19 06:02:46;;;;;;;48.00;27.27;;;9.40;95.10;;;;;;4984770;28;20042;-70
2021/09/19 06:05:12;;;;;;;47.10;29.10;;;9.40;95.00;;;;;;4983074;28;20026;-70
2021/09/19 06:07:38;;;;;;;46.50;27.17;;;9.60;94.80;;;;;;4983517;28;20058;-70
2021/09/19 06:10:05;;;;;;;44.92;26.67;;;9.70;95.10;;;;;;4984945;28;20027;-68
2021/09/19 06:12:31;;;;;;;45.58;28.65;;;9.90;95.00;;;;;;4978611;28;20175;-69
2021/09/19 06:14:56;;;;;;;41.47;26.92;;;10.00;95.30;;;;;;4983461;28;20460;-68
2021/09/19 06:17:22;;;;;;;49.78;29.60;;;10.10;95.50;;;;;;4982802;28;20316;-69
2021/09/19 06:19:51;;;;;;;41.53;27.20;;;10.20;96.20;;;;;;4978635;28;20041;-69
2021/09/19 06:22:18;;;;;;;42.17;27.52;;;10.20;96.40;;;;;;4978546;28;20031;-69
2021/09/19 06:24:44;;;;;;;43.58;28.08;;;10.30;96.50;;;;;;4986760;28;20459;-70
2021/09/19 06:27:13;;;;;;;40.88;27.02;;;10.40;97.00;;;;;;4983345;28;20081;-70
2021/09/19 06:29:40;;;;;;;40.83;27.25;;;10.50;97.30;;;;;;4987134;28;20101;-69
2021/09/19 06:32:07;;;;;;;39.60;25.65;;;10.60;97.60;;;;;;4981791;28;20512;-69
2021/09/19 06:34:37;;;;;;;43.03;27.50;;;10.60;97.90;;;;;;4983917;28;20029;-69
2021/09/19 06:37:03;;;;;;;38.88;26.42;;;10.60;98.00;;;;;;4988704;28;20109;-68
2021/09/19 06:39:29;;;;;;;36.88;25.17;;;10.60;98.00;;;;;;4997646;28;20026;-69
2021/09/19 06:42:00;;;;;;;39.28;26.30;;;10.70;98.00;;;;;;4987496;28;20038;-68
2021/09/19 06:44:26;;;;;;;40.25;26.20;;;10.80;98.00;;;;;;4988781;28;20482;-68
2021/09/19 06:46:56;;;;;;;40.08;24.85;;;10.80;98.00;;;;;;5000435;28;20065;-71
2021/09/19 06:49:23;;;;;;;37.38;24.48;;;10.90;98.00;;;;;;4981805;28;20023;-70
2021/09/19 06:51:49;;;;;;;39.75;26.92;;;10.90;98.00;;;;;;5002892;28;20073;-70
2021/09/19 06:54:14;;;;;;;37.95;24.88;;;11.00;98.00;;;;;;4993957;28;20034;-70
2021/09/19 06:56:40;;;;;;;36.80;24.65;;;11.00;98.00;;;;;;4988794;28;20041;-70
2021/09/19 06:59:06;;;;;;;37.35;25.17;;;11.10;98.00;;;;;;4996853;28;20089;-69
2021/09/19 07:01:31;;;;;;;33.80;22.00;;;11.30;98.00;;;;;;4990622;28;20038;-71
2021/09/19 07:03:57;;;;;;;35.13;24.05;;;11.30;98.00;;;;;;4988105;28;20027;-69
2021/09/19 07:06:26;;;;;;;32.33;23.52;;;11.40;98.00;;;;;;4989821;28;20030;-69
2021/09/19 07:08:51;;;;;;;36.40;24.85;;;11.60;98.00;;;;;;4993938;28;20037;-69
2021/09/19 07:11:20;;;;;;;37.75;24.27;;;11.60;98.00;;;;;;4994937;28;20038;-69
2021/09/19 07:13:45;;;;;;;32.05;21.67;;;11.80;98.00;;;;;;4995536;28;20084;-69
2021/09/19 07:16:11;;;;;;;28.00;19.08;;;12.20;98.00;;;;;;5000140;28;20034;-69
2021/09/19 07:18:37;;;;;;;28.08;19.33;;;12.40;98.00;;;;;;4989552;28;20037;-70
2021/09/19 07:21:02;;;;;;;28.65;20.63;;;12.40;98.00;;;;;;4987032;28;20029;-69
2021/09/19 07:23:28;;;;;;;29.83;19.52;;;12.40;98.00;;;;;;4986936;28;20030;-69
2021/09/19 07:25:54;;;;;;;30.10;20.55;;;12.50;98.00;;;;;;4964649;28;20421;-72
2021/09/19 07:28:19;;;;;;;27.13;19.15;;;12.40;98.00;;;;;;4980563;28;20034;-69
2021/09/19 07:30:45;;;;;;;35.83;18.83;;;12.50;98.00;;;;;;4994060;28;20039;-69
2021/09/19 07:33:11;;;;;;;30.30;20.25;;;12.60;98.00;;;;;;4971405;28;20026;-68
2021/09/19 07:35:37;;;;;;;29.15;19.77;;;12.60;98.00;;;;;;5012719;28;20320;-70
2021/09/19 07:38:04;;;;;;;25.33;18.52;;;12.80;98.00;;;;;;5001632;28;20127;-68
2021/09/19 07:40:30;;;;;;;26.73;19.05;;;13.00;98.00;;;;;;5000260;28;20050;-69
2021/09/19 07:43:00;;;;;;;26.30;18.42;;;13.10;98.00;;;;;;4994231;28;20026;-68
2021/09/19 07:45:27;;;;;;;26.80;18.85;;;13.30;98.00;;;;;;4997420;28;20268;-69
2021/09/19 07:47:55;;;;;;;27.80;18.48;;;13.40;98.00;;;;;;5003898;28;20105;-67
2021/09/19 07:50:21;;;;;;;25.27;17.85;;;13.50;98.00;;;;;;4993760;28;20034;-68
2021/09/19 07:52:47;;;;;;;26.30;18.98;;;13.50;98.00;;;;;;4991918;28;20424;-68
2021/09/19 07:55:15;;;;;;;25.55;17.38;;;13.60;98.00;;;;;;4972901;28;20086;-69
2021/09/19 07:57:43;;;;;;;25.33;17.98;;;13.80;98.00;;;;;;4981521;28;20042;-68
2021/09/19 08:00:10;;;;;;;26.77;18.83;;;13.80;98.00;;;;;;4992130;28;20220;-69
2021/09/19 08:02:36;;;;;;;24.65;17.05;;;13.80;98.00;;;;;;4995006;28;20018;-69
2021/09/19 08:05:01;;;;;;;25.17;17.95;;;14.10;98.00;;;;;;4995593;28;20328;-69
2021/09/19 08:07:27;;;;;;;26.23;18.80;;;14.20;98.00;;;;;;4995816;28;20102;-68
2021/09/19 08:09:53;;;;;;;26.15;18.67;;;14.20;98.00;;;;;;4994148;28;20027;-68
2021/09/19 08:12:18;;;;;;;21.02;15.52;;;14.40;98.00;;;;;;4995003;28;20379;-68
2021/09/19 08:14:44;;;;;;;23.00;15.40;;;14.90;98.00;;;;;;5007168;28;20093;-69
2021/09/19 08:17:10;;;;;;;22.13;14.43;;;15.50;96.10;;;;;;4994774;28;20038;-68
2021/09/19 08:19:36;;;;;;;19.48;14.23;;;16.40;93.60;;;;;;4989390;28;20038;-68
2021/09/19 08:22:03;;;;;;;20.70;14.50;;;16.90;91.40;;;;;;5001572;28;20089;-68
2021/09/19 08:24:28;;;;;;;18.63;13.63;;;17.40;89.60;;;;;;4995480;28;20011;-69
2021/09/19 08:26:54;;;;;;;17.63;12.25;;;17.90;88.80;;;;;;5011702;28;20407;-69
2021/09/19 08:29:21;;;;;;;18.15;13.48;;;18.50;86.40;;;;;;5004288;28;20041;-68
2021/09/19 08:31:47;;;;;;;14.73;11.75;;;18.70;84.70;;;;;;4999757;28;20049;-69
2021/09/19 08:34:13;;;;;;;19.40;13.95;;;19.00;85.60;;;;;;5000594;28;20427;-69
2021/09/19 08:36:39;;;;;;;18.48;12.48;;;19.30;83.40;;;;;;5013935;28;20362;-69
2021/09/19 08:39:08;;;;;;;18.15;12.93;;;19.70;82.50;;;;;;5000126;28;20051;-69
2021/09/19 08:41:37;;;;;;;16.63;12.43;;;19.90;81.80;;;;;;5000004;28;20027;-69
2021/09/19 08:44:03;;;;;;;15.73;12.25;;;20.20;81.40;;;;;;4988039;28;20098;-70
2021/09/19 08:46:30;;;;;;;15.85;11.68;;;19.90;81.70;;;;;;4976617;28;20027;-70
2021/09/19 08:48:56;;;;;;;16.10;11.75;;;19.80;81.90;;;;;;4981371;28;20114;-70
2021/09/19 08:51:21;;;;;;;16.35;12.13;;;20.00;82.10;;;;;;4982426;28;20127;-70
2021/09/19 08:53:49;;;;;;;16.38;12.18;;;20.20;81.70;;;;;;4983179;28;20030;-70
2021/09/19 08:56:26;;;;;;;16.33;11.48;;;20.30;80.50;;;;;;4989475;28;20091;-69
2021/09/19 08:58:55;;;;;;;16.60;11.75;;;20.10;82.00;;;;;;4984602;28;20033;-69
2021/09/19 09:01:21;;;;;;;16.35;12.90;;;20.20;81.00;;;;;;4998780;28;20030;-69
2021/09/19 09:03:48;;;;;;;17.25;13.40;;;20.10;81.20;;;;;;4998863;28;20030;-70
2021/09/19 09:06:17;;;;;;;22.30;15.07;;;19.00;82.50;;;;;;4998840;28;20030;-69
2021/09/19 09:08:44;;;;;;;23.35;14.55;;;17.60;86.90;;;;;;5001368;28;20029;-70
2021/09/19 09:11:11;;;;;;;21.92;15.60;;;16.60;90.40;;;;;;4981402;28;20028;-70
2021/09/19 09:13:39;;;;;;;20.17;14.52;;;15.80;92.70;;;;;;4993182;28;20097;-68
2021/09/19 09:16:14;;;;;;;22.17;15.38;;;15.40;94.80;;;;;;4984257;28;20027;-69
2021/09/19 09:18:42;;;;;;;18.67;13.80;;;16.20;94.60;;;;;;4995566;28;20391;-68
2021/09/19 09:21:11;;;;;;;18.88;14.55;;;16.50;92.10;;;;;;5011373;28;20076;-69
2021/09/19 09:23:45;;;;;;;20.33;14.15;;;16.40;92.40;;;;;;5000050;28;20030;-69
2021/09/19 09:26:16;;;;;;;;;;;16.20;93.00;;;;;;4997802;28;20030;-68
2021/09/19 09:28:46;;;;;;;20.00;12.75;;;16.00;93.00;;;;;;4995159;28;19964;-68
2021/09/19 09:31:25;;;;;;;15.85;11.55;;;16.60;93.20;;;;;;4993413;28;20047;-68
2021/09/19 09:33:56;;;;;;;16.70;11.02;;;18.00;90.10;;;;;;4983579;28;20024;-69
2021/09/19 09:36:34;;;;;;;14.30;10.23;;;20.00;84.90;;;;;;4994220;28;20034;-68
2021/09/19 09:39:19;;;;;;;17.05;11.18;;;22.00;79.00;;;;;;4991084;28;20019;-68
2021/09/19 09:41:44;;;;;;;15.35;9.98;;;23.00;74.80;;;;;;4984380;28;20037;-69
2021/09/19 09:44:37;;;;;;;12.70;8.93;;;23.70;73.00;;;;;;4989994;28;20026;-69
2021/09/19 09:47:07;;;;;;;18.88;11.60;;;23.80;73.30;;;;;;5000719;28;20105;-69
2021/09/19 09:49:35;;;;;;;11.73;8.82;;;24.00;71.40;;;;;;4991351;28;20031;-68
2021/09/19 09:52:08;;;;;;;18.23;9.85;;;24.10;71.70;;;;;;4993167;28;20427;-70
2021/09/19 09:54:54;;;;;;;11.38;8.00;;;23.60;72.10;;;;;;4993412;28;20030;-69
2021/09/19 09:57:35;;;;;;;11.10;8.15;;;23.10;74.80;;;;;;4995542;28;20030;-68
2021/09/19 10:00:11;;;;;;;11.93;8.25;;;24.10;72.80;;;;;;4999687;28;20021;-69
2021/09/19 10:02:39;;;;;;;11.52;8.57;;;23.60;71.90;;;;;;4995095;28;20097;-69
2021/09/19 10:05:07;;;;;;;12.10;8.55;;;22.80;74.00;;;;;;4994339;28;20023;-69
2021/09/19 10:07:34;;;;;;;11.48;9.00;;;21.20;77.90;;;;;;4997590;28;20324;-69
2021/09/19 10:10:02;;;;;;;13.90;10.20;;;20.10;80.20;;;;;;5009947;28;20412;-69
2021/09/19 10:12:28;;;;;;;14.63;9.70;;;19.10;83.40;;;;;;4992497;28;20037;-70
2021/09/19 10:14:55;;;;;;;14.57;11.30;;;18.40;86.00;;;;;;4983546;28;20113;-69
2021/09/19 10:17:23;;;;;;;16.33;11.70;;;18.00;88.10;;;;;;4997649;28;20058;-69
2021/09/19 10:19:50;;;;;;;17.83;12.02;;;17.60;88.50;;;;;;5000940;28;20105;-69
2021/09/19 10:22:26;;;;;;;15.32;11.23;;;17.50;89.30;;;;;;5017247;28;20292;-67
2021/09/19 10:24:53;;;;;;;13.95;9.60;;;18.60;88.80;;;;;;4983277;28;20029;-68
2021/09/19 10:27:25;;;;;;;12.48;8.80;;;20.60;83.70;;;;;;4995927;28;20022;-69
2021/09/19 10:30:03;;;;;;;12.20;8.85;;;22.10;79.20;;;;;;4985149;28;20033;-69
2021/09/19 10:32:39;;;;;;;13.50;9.35;;;22.90;75.20;;;;;;4987275;28;20060;-69
2021/09/19 10:35:15;;;;;;;11.77;8.60;;;22.10;76.30;;;;;;4995485;28;20126;-69
2021/09/19 10:38:04;;;;;;;12.88;8.63;;;22.40;77.50;;;;;;4986416;28;20034;-69
2021/09/19 10:40:33;;;;;;;12.10;8.32;;;23.30;75.40;;;;;;4996946;28;20049;-69
2021/09/19 10:42:59;;;;;;;15.05;9.23;;;23.90;73.20;;;;;;4983751;28;20037;-70
2021/09/19 10:45:51;;;;;;;14.38;9.10;;;24.00;72.30;;;;;;4989888;28;20416;-70
2021/09/19 10:48:31;;;;;;;12.35;8.20;;;24.00;71.90;;;;;;4983005;28;20125;-69
2021/09/19 10:51:07;;;;;;;15.60;9.65;;;23.60;74.30;;;;;;4990956;28;20022;-68
2021/09/19 10:53:55;;;;;;;11.10;8.38;;;23.80;72.30;;;;;;4996398;28;20030;-69
2021/09/19 10:56:23;;;;;;;12.02;9.40;;;23.70;73.80;;;;;;4992576;28;20317;-69
2021/09/19 10:58:49;;;;;;;12.77;9.65;;;23.30;73.80;;;;;;4994046;28;20038;-69
2021/09/19 11:01:17;;;;;;;12.75;9.98;;;23.30;74.30;;;;;;4985361;28;20050;-70
2021/09/19 11:03:45;;;;;;;12.98;9.70;;;23.10;74.50;;;;;;4994559;28;20046;-70
2021/09/19 11:06:32;;;;;;;13.63;10.05;;;22.90;74.90;;;;;;4983606;28;20033;-70
2021/09/19 11:09:22;;;;;;;15.32;10.23;;;22.60;75.90;;;;;;4983578;28;20022;-70
2021/09/19 11:12:09;;;;;;;11.55;9.07;;;22.60;75.80;;;;;;4983418;28;20050;-69
2021/09/19 11:15:03;;;;;;;12.18;8.65;;;23.20;75.90;;;;;;4993888;28;20029;-69
2021/09/19 11:17:31;;;;;;;10.48;7.88;;;24.00;73.20;;;;;;4990796;28;20069;-69
2021/09/19 11:20:31;;;;;;;13.88;8.68;;;24.10;72.70;;;;;;4992222;28;20049;-69
2021/09/19 11:23:20;;;;;;;11.43;8.68;;;23.70;72.70;;;;;;4976314;28;20107;-69
2021/09/19 11:25:46;;;;;;;11.13;8.20;;;23.40;73.80;;;;;;4989459;28;20101;-69
2021/09/19 11:28:13;;;;;;;12.00;8.57;;;23.90;73.20;;;;;;4978139;28;20324;-70
2021/09/19 11:30:39;;;;;;;10.68;7.32;;;24.20;71.20;;;;;;4993446;28;20464;-69
2021/09/19 11:33:12;;;;;;;11.70;8.40;;;23.70;72.20;;;;;;4984389;28;20035;-69
2021/09/19 11:35:39;;;;;;;19.97;9.97;;;22.50;73.90;;;;;;4980012;28;20023;-69
2021/09/19 11:38:04;;;;;;;11.65;8.70;;;21.70;78.00;;;;;;4982236;28;20026;-68
2021/09/19 11:40:30;;;;;;;12.18;7.50;;;22.50;74.70;;;;;;4988280;28;20439;-69
2021/09/19 11:43:06;;;;;;;12.75;9.27;;;23.30;74.00;;;;;;4989995;28;20427;-69
2021/09/19 11:45:33;;;;;;;12.65;8.48;;;23.70;72.00;;;;;;4965648;28;20108;-68
2021/09/19 11:48:00;;;;;;;11.60;8.80;;;23.90;72.10;;;;;;4978671;28;20026;-70
2021/09/19 11:50:26;;;;;;;12.07;8.73;;;24.30;70.00;;;;;;4996188;28;20023;-69
2021/09/19 11:52:52;;;;;;;14.65;9.38;;;24.50;70.60;;;;;;4989629;28;20436;-69
2021/09/19 11:55:20;;;;;;;12.32;9.60;;;24.20;69.90;;;;;;4961180;28;20027;-69
2021/09/19 11:57:46;;;;;;;11.00;8.40;;;23.90;71.20;;;;;;4989410;28;20065;-69
2021/09/19 12:00:12;;;;;;;15.60;9.80;;;23.40;72.80;;;;;;4987790;28;20424;-69
2021/09/19 12:02:39;;;;;;;12.05;7.95;;;22.30;73.10;;;;;;4985915;28;20035;-68
2021/09/19 12:05:06;;;;;;;11.25;8.65;;;21.40;77.10;;;;;;4977012;28;20376;-69
2021/09/19 12:07:32;;;;;;;13.27;8.55;;;20.80;77.50;;;;;;4988429;28;20043;-69
2021/09/19 12:09:58;;;;;;;12.57;9.20;;;20.50;79.20;;;;;;4980728;28;20454;-69
2021/09/19 12:12:23;;;;;;;11.02;7.80;;;20.50;81.30;;;;;;4984060;28;20031;-70
2021/09/19 12:14:53;;;;;;;12.20;9.45;;;21.20;78.50;;;;;;4979018;28;20049;-70
2021/09/19 12:17:29;;;;;;;11.75;8.45;;;21.80;76.00;;;;;;4994585;28;20027;-70
2021/09/19 12:20:07;;;;;;;11.45;8.43;;;22.40;74.60;;;;;;4981473;28;20054;-69
2021/09/19 12:22:33;;;;;;;9.30;7.13;;;22.90;74.40;;;;;;4988188;28;20034;-69
2021/09/19 12:25:04;;;;;;;9.77;6.82;;;23.90;72.30;;;;;;4989087;28;20114;-68
2021/09/19 12:27:41;;;;;;;9.63;7.07;;;24.30;69.70;;;;;;4991030;28;20015;-69
2021/09/19 12:30:16;;;;;;;10.23;6.90;;;23.10;72.00;;;;;;4994399;28;20046;-69
2021/09/19 12:32:46;;;;;;;9.30;6.90;;;22.60;72.40;;;;;;4995229;28;20030;-69
2021/09/19 12:35:15;;;;;;;18.00;6.63;;;22.10;71.90;;;;;;4997411;28;20372;-68